sensor_id;sensor_type;location;lat;lon;timestamp;temperature;humidity
47168;DHT22;32931;47.778;17.806;2022-10-31T00:00:14;14.40;99.90
47168;DHT22;32931;47.778;17.806;2022-10-31T00:02:40;14.40;99.90
47168;DHT22;32931;47.778;17.806;2022-10-31T00:05:07;14.40;99.90
47168;DHT22;32931;47.778;17.806;2022-10-31T00:07:33;14.30;99.90
47168;DHT22;32931;47.778;17.806;2022-10-31T00:09:59;14.40;99.90
47168;DHT22;32931;47.778;17.806;2022-10-31T00:12:26;14.40;99.90
47168;DHT22;32931;47.778;17.806;2022-10-31T00:14:52;14.40;99.90
47168;DHT22;32931;47.778;17.806;2022-10-31T00:17:18;14.40;99.90
47168;DHT22;32931;47.778;17.806;2022-10-31T00:19:44;14.40;99.90
47168;DHT22;32931;47.778;17.806;2022-10-31T00:22:10;14.40;99.90
47168;DHT22;32931;47.778;17.806;2022-10-31T00:24:36;14.40;99.90
47168;DHT22;32931;47.778;17.806;2022-10-31T00:27:03;14.40;99.90
47168;DHT22;32931;47.778;17.806;2022-10-31T00:29:29;14.40;99.90
47168;DHT22;32931;47.778;17.806;2022-10-31T00:31:55;14.40;99.90
47168;DHT22;32931;47.778;17.806;2022-10-31T00:34:21;14.40;99.90
47168;DHT22;32931;47.778;17.806;2022-10-31T00:36:47;14.40;99.90
47168;DHT22;32931;47.778;17.806;2022-10-31T00:39:13;14.40;99.90
47168;DHT22;32931;47.778;17.806;2022-10-31T00:41:39;14.40;99.90
47168;DHT22;32931;47.778;17.806;2022-10-31T00:44:05;14.40;99.90
47168;DHT22;32931;47.778;17.806;2022-10-31T00:46:32;14.40;99.90
47168;DHT22;32931;47.778;17.806;2022-10-31T00:48:58;14.40;99.90
47168;DHT22;32931;47.778;17.806;2022-10-31T00:51:24;14.40;99.90
47168;DHT22;32931;47.778;17.806;2022-10-31T00:53:50;14.40;99.90
47168;DHT22;32931;47.778;17.806;2022-10-31T00:56:16;14.40;99.90
47168;DHT22;32931;47.778;17.806;2022-10-31T00:58:42;14.40;99.90
47168;DHT22;32931;47.778;17.806;2022-10-31T01:01:08;14.40;99.90
47168;DHT22;32931;47.778;17.806;2022-10-31T01:03:35;14.40;99.90
47168;DHT22;32931;47.778;17.806;2022-10-31T01:06:07;14.40;99.90
47168;DHT22;32931;47.778;17.806;2022-10-31T01:08:35;14.40;99.90
47168;DHT22;32931;47.778;17.806;2022-10-31T01:11:21;14.40;99.90
47168;DHT22;32931;47.778;17.806;2022-10-31T01:13:50;14.40;99.90
47168;DHT22;32931;47.778;17.806;2022-10-31T01:16:19;14.40;99.90
47168;DHT22;32931;47.778;17.806;2022-10-31T01:18:46;14.40;99.90
47168;DHT22;32931;47.778;17.806;2022-10-31T01:21:15;14.40;99.90
47168;DHT22;32931;47.778;17.806;2022-10-31T01:23:43;14.40;99.90
47168;DHT22;32931;47.778;17.806;2022-10-31T01:26:13;14.40;99.90
47168;DHT22;32931;47.778;17.806;2022-10-31T01:29:01;14.40;99.90
47168;DHT22;32931;47.778;17.806;2022-10-31T01:31:30;14.40;99.90
47168;DHT22;32931;47.778;17.806;2022-10-31T01:33:58;14.40;99.90
47168;DHT22;32931;47.778;17.806;2022-10-31T01:36:32;14.40;99.90
47168;DHT22;32931;47.778;17.806;2022-10-31T01:39:01;14.40;99.90
47168;DHT22;32931;47.778;17.806;2022-10-31T01:41:30;14.40;99.90
47168;DHT22;32931;47.778;17.806;2022-10-31T01:46:34;14.40;99.90
47168;DHT22;32931;47.778;17.806;2022-10-31T01:49:05;14.40;99.90
47168;DHT22;32931;47.778;17.806;2022-10-31T01:51:36;14.40;99.90
47168;DHT22;32931;47.778;17.806;2022-10-31T01:54:08;14.40;99.90
47168;DHT22;32931;47.778;17.806;2022-10-31T01:56:39;14.40;99.90
47168;DHT22;32931;47.778;17.806;2022-10-31T01:59:09;14.40;99.90
47168;DHT22;32931;47.778;17.806;2022-10-31T02:01:37;14.40;99.90
47168;DHT22;32931;47.778;17.806;2022-10-31T02:04:04;14.30;99.90
47168;DHT22;32931;47.778;17.806;2022-10-31T02:06:44;14.30;99.90
47168;DHT22;32931;47.778;17.806;2022-10-31T02:09:12;14.30;99.90
47168;DHT22;32931;47.778;17.806;2022-10-31T02:11:39;14.40;99.90
47168;DHT22;32931;47.778;17.806;2022-10-31T02:14:06;14.30;99.90
47168;DHT22;32931;47.778;17.806;2022-10-31T02:16:32;14.30;99.90
47168;DHT22;32931;47.778;17.806;2022-10-31T02:18:58;14.30;99.90
47168;DHT22;32931;47.778;17.806;2022-10-31T02:21:38;14.30;99.90
47168;DHT22;32931;47.778;17.806;2022-10-31T02:24:47;14.30;99.90
47168;DHT22;32931;47.778;17.806;2022-10-31T02:30:14;14.30;99.90
47168;DHT22;32931;47.778;17.806;2022-10-31T02:37:57;14.30;99.90
47168;DHT22;32931;47.778;17.806;2022-10-31T02:40:32;14.30;99.90
47168;DHT22;32931;47.778;17.806;2022-10-31T02:43:12;14.30;99.90
47168;DHT22;32931;47.778;17.806;2022-10-31T02:48:40;14.30;99.90
47168;DHT22;32931;47.778;17.806;2022-10-31T02:51:08;14.30;99.90
47168;DHT22;32931;47.778;17.806;2022-10-31T02:53:37;14.30;99.90
47168;DHT22;32931;47.778;17.806;2022-10-31T02:56:14;14.20;99.90
47168;DHT22;32931;47.778;17.806;2022-10-31T02:58:45;14.30;99.90
47168;DHT22;32931;47.778;17.806;2022-10-31T03:04:36;14.20;99.90
47168;DHT22;32931;47.778;17.806;2022-10-31T03:12:26;14.20;99.90
47168;DHT22;32931;47.778;17.806;2022-10-31T03:17:47;14.10;99.90
47168;DHT22;32931;47.778;17.806;2022-10-31T03:20:21;14.20;99.90
47168;DHT22;32931;47.778;17.806;2022-10-31T03:22:50;14.20;99.90
47168;DHT22;32931;47.778;17.806;2022-10-31T03:25:18;14.20;99.90
47168;DHT22;32931;47.778;17.806;2022-10-31T03:27:45;14.20;99.90
47168;DHT22;32931;47.778;17.806;2022-10-31T03:30:12;14.20;99.90
47168;DHT22;32931;47.778;17.806;2022-10-31T03:32:46;14.20;99.90
47168;DHT22;32931;47.778;17.806;2022-10-31T03:35:15;14.20;99.90
47168;DHT22;32931;47.778;17.806;2022-10-31T03:37:43;14.20;99.90
47168;DHT22;32931;47.778;17.806;2022-10-31T03:40:11;14.20;99.90
47168;DHT22;32931;47.778;17.806;2022-10-31T03:42:42;14.10;99.90
47168;DHT22;32931;47.778;17.806;2022-10-31T03:45:21;14.10;99.90
47168;DHT22;32931;47.778;17.806;2022-10-31T03:47:50;14.10;99.90
47168;DHT22;32931;47.778;17.806;2022-10-31T03:50:17;14.20;99.90
47168;DHT22;32931;47.778;17.806;2022-10-31T03:53:09;14.20;99.90
47168;DHT22;32931;47.778;17.806;2022-10-31T03:55:47;14.20;99.90
47168;DHT22;32931;47.778;17.806;2022-10-31T03:58:25;14.20;99.90
47168;DHT22;32931;47.778;17.806;2022-10-31T04:00:54;14.10;99.90
47168;DHT22;32931;47.778;17.806;2022-10-31T04:03:31;14.10;99.90
47168;DHT22;32931;47.778;17.806;2022-10-31T04:06:03;14.20;99.90
47168;DHT22;32931;47.778;17.806;2022-10-31T04:08:32;14.20;99.90
47168;DHT22;32931;47.778;17.806;2022-10-31T04:11:00;14.20;99.90
47168;DHT22;32931;47.778;17.806;2022-10-31T04:13:31;14.20;99.90
47168;DHT22;32931;47.778;17.806;2022-10-31T04:15:59;14.20;99.90
47168;DHT22;32931;47.778;17.806;2022-10-31T04:18:26;14.20;99.90
47168;DHT22;32931;47.778;17.806;2022-10-31T04:21:04;14.20;99.90
47168;DHT22;32931;47.778;17.806;2022-10-31T04:23:30;14.20;99.90
47168;DHT22;32931;47.778;17.806;2022-10-31T04:25:57;14.20;99.90
47168;DHT22;32931;47.778;17.806;2022-10-31T04:28:23;14.20;99.90
47168;DHT22;32931;47.778;17.806;2022-10-31T04:30:49;14.20;99.90
47168;DHT22;32931;47.778;17.806;2022-10-31T04:33:16;14.10;99.90
47168;DHT22;32931;47.778;17.806;2022-10-31T04:35:42;14.20;99.90
47168;DHT22;32931;47.778;17.806;2022-10-31T04:38:08;14.10;99.90
47168;DHT22;32931;47.778;17.806;2022-10-31T04:40:34;14.20;99.90
47168;DHT22;32931;47.778;17.806;2022-10-31T04:43:01;14.20;99.90
47168;DHT22;32931;47.778;17.806;2022-10-31T04:45:27;14.10;99.90
47168;DHT22;32931;47.778;17.806;2022-10-31T04:47:53;14.10;99.90
47168;DHT22;32931;47.778;17.806;2022-10-31T04:50:19;14.20;99.90
47168;DHT22;32931;47.778;17.806;2022-10-31T04:52:46;14.20;99.90
47168;DHT22;32931;47.778;17.806;2022-10-31T04:55:12;14.20;99.90
47168;DHT22;32931;47.778;17.806;2022-10-31T04:57:47;14.10;99.90
47168;DHT22;32931;47.778;17.806;2022-10-31T05:00:15;14.10;99.90
47168;DHT22;32931;47.778;17.806;2022-10-31T05:02:49;14.10;99.90
47168;DHT22;32931;47.778;17.806;2022-10-31T05:05:17;14.10;99.90
47168;DHT22;32931;47.778;17.806;2022-10-31T05:07:45;14.10;99.90
47168;DHT22;32931;47.778;17.806;2022-10-31T05:10:14;14.10;99.90
47168;DHT22;32931;47.778;17.806;2022-10-31T05:12:55;14.10;99.90
47168;DHT22;32931;47.778;17.806;2022-10-31T05:15:24;14.10;99.90
47168;DHT22;32931;47.778;17.806;2022-10-31T05:17:51;14.10;99.90
47168;DHT22;32931;47.778;17.806;2022-10-31T05:20:19;14.10;99.90
47168;DHT22;32931;47.778;17.806;2022-10-31T05:22:48;14.10;99.90
47168;DHT22;32931;47.778;17.806;2022-10-31T05:25:14;14.10;99.90
47168;DHT22;32931;47.778;17.806;2022-10-31T05:27:42;14.10;99.90
47168;DHT22;32931;47.778;17.806;2022-10-31T05:30:11;14.10;99.90
47168;DHT22;32931;47.778;17.806;2022-10-31T05:32:42;14.10;99.90
47168;DHT22;32931;47.778;17.806;2022-10-31T05:35:13;14.10;99.90
47168;DHT22;32931;47.778;17.806;2022-10-31T05:37:40;14.10;99.90
47168;DHT22;32931;47.778;17.806;2022-10-31T05:40:08;14.10;99.90
47168;DHT22;32931;47.778;17.806;2022-10-31T05:42:35;14.10;99.90
47168;DHT22;32931;47.778;17.806;2022-10-31T05:45:01;14.10;99.90
47168;DHT22;32931;47.778;17.806;2022-10-31T05:47:28;14.10;99.90
47168;DHT22;32931;47.778;17.806;2022-10-31T05:49:54;14.10;99.90
47168;DHT22;32931;47.778;17.806;2022-10-31T05:52:20;14.10;99.90
47168;DHT22;32931;47.778;17.806;2022-10-31T05:54:46;14.10;99.90
47168;DHT22;32931;47.778;17.806;2022-10-31T05:57:12;14.10;99.90
47168;DHT22;32931;47.778;17.806;2022-10-31T05:59:38;14.10;99.90
47168;DHT22;32931;47.778;17.806;2022-10-31T06:02:04;14.10;99.90
47168;DHT22;32931;47.778;17.806;2022-10-31T06:04:30;14.10;99.90
47168;DHT22;32931;47.778;17.806;2022-10-31T06:06:57;14.10;99.90
47168;DHT22;32931;47.778;17.806;2022-10-31T06:09:23;14.10;99.90
47168;DHT22;32931;47.778;17.806;2022-10-31T06:11:49;14.10;99.90
47168;DHT22;32931;47.778;17.806;2022-10-31T06:14:15;14.10;99.90
47168;DHT22;32931;47.778;17.806;2022-10-31T06:16:41;14.10;99.90
47168;DHT22;32931;47.778;17.806;2022-10-31T06:19:07;14.10;99.90
47168;DHT22;32931;47.778;17.806;2022-10-31T06:21:34;14.10;99.90
47168;DHT22;32931;47.778;17.806;2022-10-31T06:24:00;14.10;99.90
47168;DHT22;32931;47.778;17.806;2022-10-31T06:26:26;14.10;99.90
47168;DHT22;32931;47.778;17.806;2022-10-31T06:28:52;14.10;99.90
47168;DHT22;32931;47.778;17.806;2022-10-31T06:31:18;14.10;99.90
47168;DHT22;32931;47.778;17.806;2022-10-31T06:33:44;14.10;99.90
47168;DHT22;32931;47.778;17.806;2022-10-31T06:36:10;14.10;99.90
47168;DHT22;32931;47.778;17.806;2022-10-31T06:38:37;14.10;99.90
47168;DHT22;32931;47.778;17.806;2022-10-31T06:41:04;14.10;99.90
47168;DHT22;32931;47.778;17.806;2022-10-31T06:43:30;14.10;99.90
47168;DHT22;32931;47.778;17.806;2022-10-31T06:45:57;14.10;99.90
47168;DHT22;32931;47.778;17.806;2022-10-31T06:48:23;14.10;99.90
47168;DHT22;32931;47.778;17.806;2022-10-31T06:50:49;14.10;99.90
47168;DHT22;32931;47.778;17.806;2022-10-31T06:53:15;14.10;99.90
47168;DHT22;32931;47.778;17.806;2022-10-31T06:55:42;14.10;99.90
47168;DHT22;32931;47.778;17.806;2022-10-31T06:58:09;14.10;99.90
47168;DHT22;32931;47.778;17.806;2022-10-31T07:00:36;14.10;99.90
47168;DHT22;32931;47.778;17.806;2022-10-31T07:03:05;14.10;99.90
47168;DHT22;32931;47.778;17.806;2022-10-31T07:05:32;14.10;99.90
47168;DHT22;32931;47.778;17.806;2022-10-31T07:08:00;14.10;99.90
47168;DHT22;32931;47.778;17.806;2022-10-31T07:10:28;14.10;99.90
47168;DHT22;32931;47.778;17.806;2022-10-31T07:12:59;14.10;99.90
47168;DHT22;32931;47.778;17.806;2022-10-31T07:15:27;14.10;99.90
47168;DHT22;32931;47.778;17.806;2022-10-31T07:17:54;14.10;99.90
47168;DHT22;32931;47.778;17.806;2022-10-31T07:20:24;14.20;99.90
47168;DHT22;32931;47.778;17.806;2022-10-31T07:22:50;14.20;99.90
47168;DHT22;32931;47.778;17.806;2022-10-31T07:25:17;14.20;99.90
47168;DHT22;32931;47.778;17.806;2022-10-31T07:27:43;14.20;99.90
47168;DHT22;32931;47.778;17.806;2022-10-31T07:30:11;14.20;99.90
47168;DHT22;32931;47.778;17.806;2022-10-31T07:32:40;14.20;99.90
47168;DHT22;32931;47.778;17.806;2022-10-31T07:35:11;14.20;99.90
47168;DHT22;32931;47.778;17.806;2022-10-31T07:37:38;14.20;99.90
47168;DHT22;32931;47.778;17.806;2022-10-31T07:40:05;14.20;99.90
47168;DHT22;32931;47.778;17.806;2022-10-31T07:42:40;14.20;99.90
47168;DHT22;32931;47.778;17.806;2022-10-31T07:45:09;14.20;99.90
47168;DHT22;32931;47.778;17.806;2022-10-31T07:47:42;14.20;99.90
47168;DHT22;32931;47.778;17.806;2022-10-31T07:50:13;14.20;99.90
47168;DHT22;32931;47.778;17.806;2022-10-31T07:52:40;14.10;99.90
47168;DHT22;32931;47.778;17.806;2022-10-31T07:55:06;14.20;99.90
47168;DHT22;32931;47.778;17.806;2022-10-31T07:57:33;14.10;99.90
47168;DHT22;32931;47.778;17.806;2022-10-31T08:00:00;14.20;99.90
47168;DHT22;32931;47.778;17.806;2022-10-31T08:02:26;14.20;99.90
47168;DHT22;32931;47.778;17.806;2022-10-31T08:04:52;14.20;99.90
47168;DHT22;32931;47.778;17.806;2022-10-31T08:07:18;14.20;99.90
47168;DHT22;32931;47.778;17.806;2022-10-31T08:09:45;14.20;99.90
47168;DHT22;32931;47.778;17.806;2022-10-31T08:12:11;14.20;99.90
47168;DHT22;32931;47.778;17.806;2022-10-31T08:14:37;14.30;99.90
47168;DHT22;32931;47.778;17.806;2022-10-31T08:17:03;14.20;99.90
47168;DHT22;32931;47.778;17.806;2022-10-31T08:19:29;14.30;99.90
47168;DHT22;32931;47.778;17.806;2022-10-31T08:21:55;14.30;99.90
47168;DHT22;32931;47.778;17.806;2022-10-31T08:24:22;14.30;99.90
47168;DHT22;32931;47.778;17.806;2022-10-31T08:26:48;14.30;99.90
47168;DHT22;32931;47.778;17.806;2022-10-31T08:29:15;14.30;99.90
47168;DHT22;32931;47.778;17.806;2022-10-31T08:31:42;14.30;99.90
47168;DHT22;32931;47.778;17.806;2022-10-31T08:34:08;14.30;99.90
47168;DHT22;32931;47.778;17.806;2022-10-31T08:36:34;14.30;99.90
47168;DHT22;32931;47.778;17.806;2022-10-31T08:39:01;14.40;99.90
47168;DHT22;32931;47.778;17.806;2022-10-31T08:41:27;14.40;99.90
47168;DHT22;32931;47.778;17.806;2022-10-31T08:43:54;14.40;99.90
47168;DHT22;32931;47.778;17.806;2022-10-31T08:46:20;14.40;99.90
47168;DHT22;32931;47.778;17.806;2022-10-31T08:48:49;14.40;99.90
47168;DHT22;32931;47.778;17.806;2022-10-31T08:51:15;14.40;99.90
47168;DHT22;32931;47.778;17.806;2022-10-31T08:53:42;14.40;99.90
47168;DHT22;32931;47.778;17.806;2022-10-31T08:56:08;14.30;99.90
47168;DHT22;32931;47.778;17.806;2022-10-31T08:58:34;14.30;99.90
47168;DHT22;32931;47.778;17.806;2022-10-31T09:01:01;14.30;99.90
47168;DHT22;32931;47.778;17.806;2022-10-31T09:03:29;14.40;99.90
47168;DHT22;32931;47.778;17.806;2022-10-31T09:05:57;14.40;99.90
47168;DHT22;32931;47.778;17.806;2022-10-31T09:08:23;14.40;99.90
47168;DHT22;32931;47.778;17.806;2022-10-31T09:10:50;14.40;99.90
47168;DHT22;32931;47.778;17.806;2022-10-31T09:13:18;14.40;99.90
47168;DHT22;32931;47.778;17.806;2022-10-31T09:15:46;14.40;99.90
47168;DHT22;32931;47.778;17.806;2022-10-31T09:18:16;14.40;99.90
47168;DHT22;32931;47.778;17.806;2022-10-31T09:20:43;14.40;99.90
47168;DHT22;32931;47.778;17.806;2022-10-31T09:23:12;14.40;99.90
47168;DHT22;32931;47.778;17.806;2022-10-31T09:25:40;14.40;99.90
47168;DHT22;32931;47.778;17.806;2022-10-31T09:28:08;14.40;99.90
47168;DHT22;32931;47.778;17.806;2022-10-31T09:30:35;14.40;99.90
47168;DHT22;32931;47.778;17.806;2022-10-31T09:33:06;14.50;99.90
47168;DHT22;32931;47.778;17.806;2022-10-31T09:35:33;14.50;99.90
47168;DHT22;32931;47.778;17.806;2022-10-31T09:38:04;14.50;99.90
47168;DHT22;32931;47.778;17.806;2022-10-31T09:40:47;14.50;99.90
47168;DHT22;32931;47.778;17.806;2022-10-31T09:49:43;14.50;99.90
47168;DHT22;32931;47.778;17.806;2022-10-31T09:52:23;14.50;99.90
47168;DHT22;32931;47.778;17.806;2022-10-31T09:54:58;14.50;99.90
47168;DHT22;32931;47.778;17.806;2022-10-31T09:57:31;14.50;99.90
47168;DHT22;32931;47.778;17.806;2022-10-31T09:59:59;14.60;99.90
47168;DHT22;32931;47.778;17.806;2022-10-31T10:02:42;14.60;99.90
47168;DHT22;32931;47.778;17.806;2022-10-31T10:05:11;14.50;99.90
47168;DHT22;32931;47.778;17.806;2022-10-31T10:07:48;14.60;99.90
47168;DHT22;32931;47.778;17.806;2022-10-31T10:10:22;14.50;99.90
47168;DHT22;32931;47.778;17.806;2022-10-31T10:18:30;14.50;99.90
47168;DHT22;32931;47.778;17.806;2022-10-31T10:21:11;14.50;99.90
47168;DHT22;32931;47.778;17.806;2022-10-31T10:23:45;14.50;99.90
47168;DHT22;32931;47.778;17.806;2022-10-31T10:26:36;14.50;99.90
47168;DHT22;32931;47.778;17.806;2022-10-31T10:32:27;14.50;99.90
47168;DHT22;32931;47.778;17.806;2022-10-31T10:35:47;14.50;99.90
47168;DHT22;32931;47.778;17.806;2022-10-31T10:37:47;14.50;99.90
47168;DHT22;32931;47.778;17.806;2022-10-31T10:40:20;14.50;99.90
47168;DHT22;32931;47.778;17.806;2022-10-31T10:43:01;14.60;99.90
47168;DHT22;32931;47.778;17.806;2022-10-31T10:48:59;14.60;99.90
47168;DHT22;32931;47.778;17.806;2022-10-31T10:59:35;14.60;99.90
47168;DHT22;32931;47.778;17.806;2022-10-31T11:02:03;14.60;99.90
47168;DHT22;32931;47.778;17.806;2022-10-31T11:04:35;14.60;99.90
47168;DHT22;32931;47.778;17.806;2022-10-31T11:09:28;14.60;99.90
47168;DHT22;32931;47.778;17.806;2022-10-31T11:11:55;14.60;99.90
47168;DHT22;32931;47.778;17.806;2022-10-31T11:14:22;14.60;99.90
47168;DHT22;32931;47.778;17.806;2022-10-31T11:16:55;14.60;99.90
47168;DHT22;32931;47.778;17.806;2022-10-31T11:19:25;14.60;99.90
47168;DHT22;32931;47.778;17.806;2022-10-31T11:21:53;14.70;99.90
47168;DHT22;32931;47.778;17.806;2022-10-31T11:24:24;14.70;99.90
47168;DHT22;32931;47.778;17.806;2022-10-31T11:27:05;14.70;99.90
47168;DHT22;32931;47.778;17.806;2022-10-31T11:29:36;14.70;99.90
47168;DHT22;32931;47.778;17.806;2022-10-31T11:32:02;14.70;99.90
47168;DHT22;32931;47.778;17.806;2022-10-31T11:34:32;14.70;99.90
47168;DHT22;32931;47.778;17.806;2022-10-31T11:39:41;14.70;99.90
47168;DHT22;32931;47.778;17.806;2022-10-31T11:42:09;14.70;99.90
47168;DHT22;32931;47.778;17.806;2022-10-31T11:44:35;14.70;99.90
47168;DHT22;32931;47.778;17.806;2022-10-31T11:47:03;14.70;99.90
47168;DHT22;32931;47.778;17.806;2022-10-31T11:49:44;14.70;99.90
47168;DHT22;32931;47.778;17.806;2022-10-31T11:52:14;14.70;99.90
47168;DHT22;32931;47.778;17.806;2022-10-31T11:54:59;14.80;99.90
47168;DHT22;32931;47.778;17.806;2022-10-31T11:57:33;14.80;99.90
47168;DHT22;32931;47.778;17.806;2022-10-31T12:00:02;14.80;99.90
47168;DHT22;32931;47.778;17.806;2022-10-31T12:02:29;14.70;99.90
47168;DHT22;32931;47.778;17.806;2022-10-31T12:05:10;14.80;99.90
47168;DHT22;32931;47.778;17.806;2022-10-31T12:07:44;14.70;99.90
47168;DHT22;32931;47.778;17.806;2022-10-31T12:10:10;14.70;99.90
47168;DHT22;32931;47.778;17.806;2022-10-31T12:20:54;14.70;99.90
47168;DHT22;32931;47.778;17.806;2022-10-31T12:40:03;14.70;99.90
47168;DHT22;32931;47.778;17.806;2022-10-31T12:59:08;14.60;99.90
47168;DHT22;32931;47.778;17.806;2022-10-31T13:01:39;14.60;99.90
47168;DHT22;32931;47.778;17.806;2022-10-31T13:06:50;14.60;99.90
47168;DHT22;32931;47.778;17.806;2022-10-31T13:09:24;14.60;99.90
47168;DHT22;32931;47.778;17.806;2022-10-31T13:12:01;14.60;99.90
47168;DHT22;32931;47.778;17.806;2022-10-31T13:14:58;14.60;99.90
47168;DHT22;32931;47.778;17.806;2022-10-31T13:17:35;14.60;99.90
47168;DHT22;32931;47.778;17.806;2022-10-31T13:22:45;14.50;99.90
47168;DHT22;32931;47.778;17.806;2022-10-31T13:25:20;14.50;99.90
47168;DHT22;32931;47.778;17.806;2022-10-31T13:28:03;14.50;99.90
47168;DHT22;32931;47.778;17.806;2022-10-31T13:30:32;14.50;99.90
47168;DHT22;32931;47.778;17.806;2022-10-31T13:40:53;14.50;99.90
47168;DHT22;32931;47.778;17.806;2022-10-31T13:46:25;14.50;99.90
47168;DHT22;32931;47.778;17.806;2022-10-31T13:48:52;14.50;99.90
47168;DHT22;32931;47.778;17.806;2022-10-31T13:51:30;14.50;99.90
47168;DHT22;32931;47.778;17.806;2022-10-31T13:54:05;14.50;99.90
47168;DHT22;32931;47.778;17.806;2022-10-31T13:56:35;14.40;99.90
47168;DHT22;32931;47.778;17.806;2022-10-31T13:59:24;14.40;99.90
47168;DHT22;32931;47.778;17.806;2022-10-31T14:01:55;14.40;99.90
47168;DHT22;32931;47.778;17.806;2022-10-31T14:04:24;14.40;99.90
47168;DHT22;32931;47.778;17.806;2022-10-31T14:06:53;14.40;99.90
47168;DHT22;32931;47.778;17.806;2022-10-31T14:09:38;14.40;99.90
47168;DHT22;32931;47.778;17.806;2022-10-31T14:13:03;14.40;99.90
47168;DHT22;32931;47.778;17.806;2022-10-31T14:15:22;14.40;99.90
47168;DHT22;32931;47.778;17.806;2022-10-31T14:17:53;14.40;99.90
47168;DHT22;32931;47.778;17.806;2022-10-31T14:22:49;14.40;99.90
47168;DHT22;32931;47.778;17.806;2022-10-31T14:25:33;14.40;99.90
47168;DHT22;32931;47.778;17.806;2022-10-31T14:30:54;14.40;99.90
47168;DHT22;32931;47.778;17.806;2022-10-31T14:33:22;14.40;99.90
47168;DHT22;32931;47.778;17.806;2022-10-31T14:36:10;14.40;99.90
47168;DHT22;32931;47.778;17.806;2022-10-31T14:41:39;14.40;99.90
47168;DHT22;32931;47.778;17.806;2022-10-31T14:51:55;14.40;99.90
47168;DHT22;32931;47.778;17.806;2022-10-31T14:54:29;14.40;99.90
47168;DHT22;32931;47.778;17.806;2022-10-31T14:57:06;14.40;99.90
47168;DHT22;32931;47.778;17.806;2022-10-31T14:59:37;14.40;99.90
47168;DHT22;32931;47.778;17.806;2022-10-31T15:02:19;14.30;99.90
47168;DHT22;32931;47.778;17.806;2022-10-31T15:04:47;14.30;99.90
47168;DHT22;32931;47.778;17.806;2022-10-31T15:07:25;14.30;99.90
47168;DHT22;32931;47.778;17.806;2022-10-31T15:10:00;14.30;99.90
47168;DHT22;32931;47.778;17.806;2022-10-31T15:12:29;14.30;99.90
47168;DHT22;32931;47.778;17.806;2022-10-31T15:14:56;14.30;99.90
47168;DHT22;32931;47.778;17.806;2022-10-31T15:17:25;14.30;99.90
47168;DHT22;32931;47.778;17.806;2022-10-31T15:19:53;14.30;99.90
47168;DHT22;32931;47.778;17.806;2022-10-31T15:22:22;14.30;99.90
47168;DHT22;32931;47.778;17.806;2022-10-31T15:24:49;14.30;99.90
47168;DHT22;32931;47.778;17.806;2022-10-31T15:27:23;14.30;99.90
47168;DHT22;32931;47.778;17.806;2022-10-31T15:29:54;14.30;99.90
47168;DHT22;32931;47.778;17.806;2022-10-31T15:32:23;14.30;99.90
47168;DHT22;32931;47.778;17.806;2022-10-31T15:34:51;14.30;99.90
47168;DHT22;32931;47.778;17.806;2022-10-31T15:37:19;14.30;99.90
47168;DHT22;32931;47.778;17.806;2022-10-31T15:39:47;14.30;99.90
47168;DHT22;32931;47.778;17.806;2022-10-31T15:42:34;14.20;99.90
47168;DHT22;32931;47.778;17.806;2022-10-31T15:47:45;14.30;99.90
47168;DHT22;32931;47.778;17.806;2022-10-31T15:50:32;14.20;99.90
47168;DHT22;32931;47.778;17.806;2022-10-31T15:53:01;14.20;99.90
47168;DHT22;32931;47.778;17.806;2022-10-31T15:55:31;14.20;99.90
47168;DHT22;32931;47.778;17.806;2022-10-31T15:58:02;14.20;99.90
47168;DHT22;32931;47.778;17.806;2022-10-31T16:00:35;14.20;99.90
47168;DHT22;32931;47.778;17.806;2022-10-31T16:03:26;14.20;99.90
47168;DHT22;32931;47.778;17.806;2022-10-31T16:05:55;14.20;99.90
47168;DHT22;32931;47.778;17.806;2022-10-31T16:11:24;14.20;99.90
47168;DHT22;32931;47.778;17.806;2022-10-31T16:13:59;14.20;99.90
47168;DHT22;32931;47.778;17.806;2022-10-31T16:16:27;14.10;99.90
47168;DHT22;32931;47.778;17.806;2022-10-31T16:18:54;14.10;99.90
47168;DHT22;32931;47.778;17.806;2022-10-31T16:21:34;14.10;99.90
47168;DHT22;32931;47.778;17.806;2022-10-31T16:24:04;14.20;99.90
47168;DHT22;32931;47.778;17.806;2022-10-31T16:26:31;14.20;99.90
47168;DHT22;32931;47.778;17.806;2022-10-31T16:28:58;14.10;99.90
47168;DHT22;32931;47.778;17.806;2022-10-31T16:31:28;14.10;99.90
47168;DHT22;32931;47.778;17.806;2022-10-31T16:34:15;14.20;99.90
47168;DHT22;32931;47.778;17.806;2022-10-31T16:36:43;14.10;99.90
47168;DHT22;32931;47.778;17.806;2022-10-31T16:39:09;14.20;99.90
47168;DHT22;32931;47.778;17.806;2022-10-31T16:41:39;14.10;99.90
47168;DHT22;32931;47.778;17.806;2022-10-31T16:44:17;14.20;99.90
47168;DHT22;32931;47.778;17.806;2022-10-31T16:46:44;14.20;99.90
47168;DHT22;32931;47.778;17.806;2022-10-31T16:49:10;14.20;99.90
47168;DHT22;32931;47.778;17.806;2022-10-31T16:51:36;14.20;99.90
47168;DHT22;32931;47.778;17.806;2022-10-31T16:54:03;14.20;99.90
47168;DHT22;32931;47.778;17.806;2022-10-31T16:56:33;14.20;99.90
47168;DHT22;32931;47.778;17.806;2022-10-31T16:59:02;14.20;99.90
47168;DHT22;32931;47.778;17.806;2022-10-31T17:01:31;14.10;99.90
47168;DHT22;32931;47.778;17.806;2022-10-31T17:03:57;14.20;99.90
47168;DHT22;32931;47.778;17.806;2022-10-31T17:06:23;14.20;99.90
47168;DHT22;32931;47.778;17.806;2022-10-31T17:08:53;14.20;99.90
47168;DHT22;32931;47.778;17.806;2022-10-31T17:11:22;14.20;99.90
47168;DHT22;32931;47.778;17.806;2022-10-31T17:13:49;14.20;99.90
47168;DHT22;32931;47.778;17.806;2022-10-31T17:16:16;14.20;99.90
47168;DHT22;32931;47.778;17.806;2022-10-31T17:18:42;14.20;99.90
47168;DHT22;32931;47.778;17.806;2022-10-31T17:21:22;14.20;99.90
47168;DHT22;32931;47.778;17.806;2022-10-31T17:23:49;14.20;99.90
47168;DHT22;32931;47.778;17.806;2022-10-31T17:26:16;14.20;99.90
47168;DHT22;32931;47.778;17.806;2022-10-31T17:28:42;14.20;99.90
47168;DHT22;32931;47.778;17.806;2022-10-31T17:31:23;14.20;99.90
47168;DHT22;32931;47.778;17.806;2022-10-31T17:33:49;14.20;99.90
47168;DHT22;32931;47.778;17.806;2022-10-31T17:36:16;14.20;99.90
47168;DHT22;32931;47.778;17.806;2022-10-31T17:38:42;14.20;99.90
47168;DHT22;32931;47.778;17.806;2022-10-31T17:41:08;14.20;99.90
47168;DHT22;32931;47.778;17.806;2022-10-31T17:43:34;14.20;99.90
47168;DHT22;32931;47.778;17.806;2022-10-31T17:46:01;14.20;99.90
47168;DHT22;32931;47.778;17.806;2022-10-31T17:48:28;14.20;99.90